松山國際航空站 - 塔臺

METAR RCSS 240730Z 11006KT 8000 -RA FEW006 BKN015 BKN035 25/24 Q1010 NOSIG RMK A2984=

站台狀態:Offline
最後更新:2020-09-24 16:00:02